Airfield :
LOGIN :

Register | Disclaimer

   EN    FR    IT 

 










Legend :    VFR   Marginal VFR   IFR   Intensive IFR   Very Intensive IFR
Visi :
Ceiling :
>= 8 km
>= 3000ft
5 to 8 km
1000 to 3000 ft
1500m to 5 km
500 to 1000 ft
800 to 1500m
200 to 500 ft
< 800m
< 200 ft
Symbols :   Thunderstorms  Fog  Heavy snow  Heavy precipitations  Wind > 20 kt
SIGMETs :     Misc.  Thunderstorms  Icing  Turbulence  Mountain Waves  Volcanic Ashes







- Airport Elevation : 527 ft
- IATA code : DBV


LDDU - Dubrovnik

CURRENT METAR :
  • 261230Z 03013KT 330V100 CAVOK 24/07 Q1014 WS ALL RWY TEMPO 30012KT

EXPIRED METARs :
  • 261200Z VRB07KT 9999 FEW070 23/07 Q1014 TEMPO 30012KT
  • 261130Z 06015KT 340V100 CAVOK 23/07 Q1014 TEMPO 30012KT
  • 261100Z VRB08G21KT CAVOK 23/07 Q1014 BECMG 30012KT
  • 261030Z 34015G29KT 270V030 CAVOK 22/07 Q1014 BECMG 300012KT
  • 261000Z 02010KT 320V080 CAVOK 23/07 Q1014 TEMPO 30008KT

TAF TAF LDDU
Valid from the 26 at 12:00 until the 27 at 12:00 UTC


261125Z 2612/2712 34012KT 9999 FEW060 TX23/2612Z TN16/2704Z
TEMPO 2612/2617 VRB15G25KT
PROB40
TEMPO 2612/2617 02015KT
BECMG 2617/2619 02015KT
TEMPO 2619/2624 02018G30KT
BECMG 2707/2709 VRB08KT
BECMG 2710/2712 28010KT
No reported NOTAMs for that airfield.



MET'MAP, your aeronautical weather chart ! - Copyright ORBIFLY December 2007 - Disclaimer

ORBIFLY MET'MAP TEAM :

Programming & Development : Alexandra Zaïnal
Concept & Development : Baudouin d'Aumeries
Co-Development & Prog : Marc-Olivier Méhu
Technical & hardware support : Manuel Goepfert

Contact : metmap@orbifly.com




SOURCES & CREDITS :

   NOAA